sensor_id;sensor_type;location;lat;lon;timestamp;pressure;altitude;pressure_sealevel;temperature;humidity
55456;BME280;63021;52.836;6.376;2024-01-15T00:02:13;100110.03;;;1.14;80.21
55456;BME280;63021;52.836;6.376;2024-01-15T00:04:39;100106.75;;;1.10;80.64
55456;BME280;63021;52.836;6.376;2024-01-15T00:07:07;100114.41;;;1.13;80.47
55456;BME280;63021;52.836;6.376;2024-01-15T00:09:34;100109.59;;;1.20;80.47
55456;BME280;63021;52.836;6.376;2024-01-15T00:12:00;100134.03;;;1.20;80.34
55456;BME280;63021;52.836;6.376;2024-01-15T00:14:25;100131.41;;;1.20;80.13
55456;BME280;63021;52.836;6.376;2024-01-15T00:16:51;100120.00;;;1.21;80.00
55456;BME280;63021;52.836;6.376;2024-01-15T00:19:17;100104.03;;;1.25;79.99
55456;BME280;63021;52.836;6.376;2024-01-15T00:21:44;100102.47;;;1.22;80.72
55456;BME280;63021;52.836;6.376;2024-01-15T00:24:09;100106.78;;;1.23;80.15
55456;BME280;63021;52.836;6.376;2024-01-15T00:26:34;100107.63;;;1.24;80.43
55456;BME280;63021;52.836;6.376;2024-01-15T00:29:00;100090.09;;;1.24;80.38
55456;BME280;63021;52.836;6.376;2024-01-15T00:31:25;100101.31;;;1.26;80.55
55456;BME280;63021;52.836;6.376;2024-01-15T00:33:51;100102.06;;;1.28;80.20
55456;BME280;63021;52.836;6.376;2024-01-15T00:36:17;100102.38;;;1.24;80.07
55456;BME280;63021;52.836;6.376;2024-01-15T00:38:44;100086.53;;;1.25;79.99
55456;BME280;63021;52.836;6.376;2024-01-15T00:41:09;100083.94;;;1.25;79.89
55456;BME280;63021;52.836;6.376;2024-01-15T00:43:34;100069.94;;;1.25;79.87
55456;BME280;63021;52.836;6.376;2024-01-15T00:46:04;100088.19;;;1.26;80.25
55456;BME280;63021;52.836;6.376;2024-01-15T00:48:29;100068.09;;;1.27;80.44
55456;BME280;63021;52.836;6.376;2024-01-15T00:50:54;100060.81;;;1.30;80.43
55456;BME280;63021;52.836;6.376;2024-01-15T00:53:20;100074.88;;;1.29;80.17
55456;BME280;63021;52.836;6.376;2024-01-15T00:55:47;100065.25;;;1.30;80.10
55456;BME280;63021;52.836;6.376;2024-01-15T00:58:13;100058.31;;;1.29;80.11
55456;BME280;63021;52.836;6.376;2024-01-15T01:00:38;100046.88;;;1.30;79.99
55456;BME280;63021;52.836;6.376;2024-01-15T01:03:04;100049.28;;;1.33;80.01
55456;BME280;63021;52.836;6.376;2024-01-15T01:05:29;100044.97;;;1.32;79.94
55456;BME280;63021;52.836;6.376;2024-01-15T01:07:54;100068.38;;;1.35;80.03
55456;BME280;63021;52.836;6.376;2024-01-15T01:10:20;100044.47;;;1.40;80.30
55456;BME280;63021;52.836;6.376;2024-01-15T01:12:45;100037.44;;;1.40;80.18
55456;BME280;63021;52.836;6.376;2024-01-15T01:15:11;100022.63;;;1.39;79.79
55456;BME280;63021;52.836;6.376;2024-01-15T01:17:36;100030.38;;;1.41;79.94
55456;BME280;63021;52.836;6.376;2024-01-15T01:20:02;100027.66;;;1.42;80.50
55456;BME280;63021;52.836;6.376;2024-01-15T01:22:29;100024.91;;;1.44;80.50
55456;BME280;63021;52.836;6.376;2024-01-15T01:24:55;100022.22;;;1.45;80.08
55456;BME280;63021;52.836;6.376;2024-01-15T01:27:21;100049.50;;;1.43;80.25
55456;BME280;63021;52.836;6.376;2024-01-15T01:29:47;100052.50;;;1.49;80.05
55456;BME280;63021;52.836;6.376;2024-01-15T01:32:12;100069.22;;;1.48;80.41
55456;BME280;63021;52.836;6.376;2024-01-15T01:34:41;100085.97;;;1.59;80.20
55456;BME280;63021;52.836;6.376;2024-01-15T01:37:10;100072.75;;;1.60;79.88
55456;BME280;63021;52.836;6.376;2024-01-15T01:39:38;100089.31;;;1.61;80.13
55456;BME280;63021;52.836;6.376;2024-01-15T01:42:03;100088.38;;;1.62;80.11
55456;BME280;63021;52.836;6.376;2024-01-15T01:44:29;100066.56;;;1.61;80.45
55456;BME280;63021;52.836;6.376;2024-01-15T01:46:54;100055.97;;;1.63;80.77
55456;BME280;63021;52.836;6.376;2024-01-15T01:49:20;100058.47;;;1.64;80.91
55456;BME280;63021;52.836;6.376;2024-01-15T01:51:46;100053.22;;;1.64;80.29
55456;BME280;63021;52.836;6.376;2024-01-15T01:54:12;100043.66;;;1.63;80.84
55456;BME280;63021;52.836;6.376;2024-01-15T01:56:40;100040.94;;;1.65;81.28
55456;BME280;63021;52.836;6.376;2024-01-15T01:59:06;100047.34;;;1.61;80.94
55456;BME280;63021;52.836;6.376;2024-01-15T02:01:32;100053.44;;;1.61;80.91
55456;BME280;63021;52.836;6.376;2024-01-15T02:03:58;100054.16;;;1.63;81.29
55456;BME280;63021;52.836;6.376;2024-01-15T02:06:24;100030.13;;;1.56;80.78
55456;BME280;63021;52.836;6.376;2024-01-15T02:08:50;100019.03;;;1.53;81.55
55456;BME280;63021;52.836;6.376;2024-01-15T02:11:15;100041.88;;;1.64;81.14
55456;BME280;63021;52.836;6.376;2024-01-15T02:13:41;100036.84;;;1.61;81.14
55456;BME280;63021;52.836;6.376;2024-01-15T02:16:07;100049.03;;;1.62;81.23
55456;BME280;63021;52.836;6.376;2024-01-15T02:18:42;100044.72;;;1.61;81.44
55456;BME280;63021;52.836;6.376;2024-01-15T02:21:09;100042.41;;;1.56;81.34
55456;BME280;63021;52.836;6.376;2024-01-15T02:23:34;100020.72;;;1.54;81.72
55456;BME280;63021;52.836;6.376;2024-01-15T02:25:59;100018.69;;;1.58;81.49
55456;BME280;63021;52.836;6.376;2024-01-15T02:28:25;100007.50;;;1.55;81.20
55456;BME280;63021;52.836;6.376;2024-01-15T02:30:50;100004.75;;;1.57;81.36
55456;BME280;63021;52.836;6.376;2024-01-15T02:33:16;100001.28;;;1.56;81.89
55456;BME280;63021;52.836;6.376;2024-01-15T02:35:41;100008.44;;;1.54;81.63
55456;BME280;63021;52.836;6.376;2024-01-15T02:38:07;100015.38;;;1.55;81.41
55456;BME280;63021;52.836;6.376;2024-01-15T02:40:34;100033.94;;;1.52;81.37
55456;BME280;63021;52.836;6.376;2024-01-15T02:43:00;100027.25;;;1.48;81.11
55456;BME280;63021;52.836;6.376;2024-01-15T02:45:25;100036.69;;;1.51;81.47
55456;BME280;63021;52.836;6.376;2024-01-15T02:47:50;100051.56;;;1.50;81.69
55456;BME280;63021;52.836;6.376;2024-01-15T02:50:16;100049.47;;;1.55;81.67
55456;BME280;63021;52.836;6.376;2024-01-15T02:52:42;100057.22;;;1.57;81.31
55456;BME280;63021;52.836;6.376;2024-01-15T02:55:08;100053.97;;;1.53;81.64
55456;BME280;63021;52.836;6.376;2024-01-15T02:57:34;100046.84;;;1.55;81.28
55456;BME280;63021;52.836;6.376;2024-01-15T02:59:59;100050.41;;;1.54;81.20
55456;BME280;63021;52.836;6.376;2024-01-15T03:02:24;100044.44;;;1.52;81.25
55456;BME280;63021;52.836;6.376;2024-01-15T03:04:50;100052.84;;;1.45;81.51
55456;BME280;63021;52.836;6.376;2024-01-15T03:07:16;100046.94;;;1.54;81.76
55456;BME280;63021;52.836;6.376;2024-01-15T03:09:41;100040.84;;;1.53;81.89
55456;BME280;63021;52.836;6.376;2024-01-15T03:12:07;100030.81;;;1.47;82.00
55456;BME280;63021;52.836;6.376;2024-01-15T03:14:32;100067.94;;;1.54;81.72
55456;BME280;63021;52.836;6.376;2024-01-15T03:16:58;100043.59;;;1.52;82.09
55456;BME280;63021;52.836;6.376;2024-01-15T03:19:23;100067.09;;;1.53;81.62
55456;BME280;63021;52.836;6.376;2024-01-15T03:21:48;100042.53;;;1.54;81.81
55456;BME280;63021;52.836;6.376;2024-01-15T03:24:14;100072.31;;;1.53;81.80
55456;BME280;63021;52.836;6.376;2024-01-15T03:26:39;100053.75;;;1.56;81.73
55456;BME280;63021;52.836;6.376;2024-01-15T03:29:05;100049.47;;;1.55;82.00
55456;BME280;63021;52.836;6.376;2024-01-15T03:31:31;100056.28;;;1.58;81.66
55456;BME280;63021;52.836;6.376;2024-01-15T03:33:57;100062.25;;;1.60;81.98
55456;BME280;63021;52.836;6.376;2024-01-15T03:36:22;100054.38;;;1.60;81.69
55456;BME280;63021;52.836;6.376;2024-01-15T03:38:48;100061.19;;;1.63;82.12
55456;BME280;63021;52.836;6.376;2024-01-15T03:41:13;100066.44;;;1.63;81.76
55456;BME280;63021;52.836;6.376;2024-01-15T03:43:38;100050.72;;;1.63;82.16
55456;BME280;63021;52.836;6.376;2024-01-15T03:46:05;100040.81;;;1.66;82.09
55456;BME280;63021;52.836;6.376;2024-01-15T03:48:30;100028.66;;;1.65;82.11
55456;BME280;63021;52.836;6.376;2024-01-15T03:50:56;100051.31;;;1.66;82.20
55456;BME280;63021;52.836;6.376;2024-01-15T03:53:21;100031.28;;;1.65;82.20
55456;BME280;63021;52.836;6.376;2024-01-15T03:55:47;100028.44;;;1.68;82.20
55456;BME280;63021;52.836;6.376;2024-01-15T03:58:12;100032.84;;;1.68;81.96
55456;BME280;63021;52.836;6.376;2024-01-15T04:00:40;100039.34;;;1.62;81.87
55456;BME280;63021;52.836;6.376;2024-01-15T04:03:05;100027.81;;;1.65;81.70
55456;BME280;63021;52.836;6.376;2024-01-15T04:05:31;100023.63;;;1.62;82.18
55456;BME280;63021;52.836;6.376;2024-01-15T04:07:56;100033.28;;;1.62;81.83
55456;BME280;63021;52.836;6.376;2024-01-15T04:10:21;100041.88;;;1.64;82.37
55456;BME280;63021;52.836;6.376;2024-01-15T04:12:47;100042.72;;;1.64;82.02
55456;BME280;63021;52.836;6.376;2024-01-15T04:15:12;100032.13;;;1.66;82.26
55456;BME280;63021;52.836;6.376;2024-01-15T04:17:38;100024.47;;;1.63;82.08
55456;BME280;63021;52.836;6.376;2024-01-15T04:20:04;100020.88;;;1.64;82.19
55456;BME280;63021;52.836;6.376;2024-01-15T04:22:30;100026.97;;;1.64;81.72
55456;BME280;63021;52.836;6.376;2024-01-15T04:24:55;100033.06;;;1.65;81.85
55456;BME280;63021;52.836;6.376;2024-01-15T04:27:21;100022.44;;;1.66;81.61
55456;BME280;63021;52.836;6.376;2024-01-15T04:29:46;100032.84;;;1.68;82.26
55456;BME280;63021;52.836;6.376;2024-01-15T04:32:12;100019.13;;;1.64;82.15
55456;BME280;63021;52.836;6.376;2024-01-15T04:34:37;100024.13;;;1.67;82.20
55456;BME280;63021;52.836;6.376;2024-01-15T04:37:02;100020.78;;;1.65;81.87
55456;BME280;63021;52.836;6.376;2024-01-15T04:39:28;100017.09;;;1.68;82.04
55456;BME280;63021;52.836;6.376;2024-01-15T04:41:54;100023.81;;;1.72;82.47
55456;BME280;63021;52.836;6.376;2024-01-15T04:44:20;100047.53;;;1.70;82.31
55456;BME280;63021;52.836;6.376;2024-01-15T04:46:45;100053.19;;;1.77;82.09
55456;BME280;63021;52.836;6.376;2024-01-15T04:49:11;100025.25;;;1.76;81.88
55456;BME280;63021;52.836;6.376;2024-01-15T04:51:37;100025.16;;;1.78;81.92
55456;BME280;63021;52.836;6.376;2024-01-15T04:54:03;100026.09;;;1.77;81.91
55456;BME280;63021;52.836;6.376;2024-01-15T04:56:28;100009.28;;;1.79;82.16
55456;BME280;63021;52.836;6.376;2024-01-15T04:58:53;100013.72;;;1.79;82.47
55456;BME280;63021;52.836;6.376;2024-01-15T05:01:19;100018.13;;;1.78;82.08
55456;BME280;63021;52.836;6.376;2024-01-15T05:03:44;99999.75;;;1.78;82.05
55456;BME280;63021;52.836;6.376;2024-01-15T05:06:10;99986.84;;;1.75;82.04
55456;BME280;63021;52.836;6.376;2024-01-15T05:08:35;99984.44;;;1.72;81.92
55456;BME280;63021;52.836;6.376;2024-01-15T05:11:00;99970.31;;;1.62;81.67
55456;BME280;63021;52.836;6.376;2024-01-15T05:13:26;99986.47;;;1.68;82.23
55456;BME280;63021;52.836;6.376;2024-01-15T05:15:52;99995.63;;;1.63;81.60
55456;BME280;63021;52.836;6.376;2024-01-15T05:18:17;99972.22;;;1.60;81.73
55456;BME280;63021;52.836;6.376;2024-01-15T05:20:43;99982.91;;;1.56;82.23
55456;BME280;63021;52.836;6.376;2024-01-15T05:23:08;99995.53;;;1.51;81.64
55456;BME280;63021;52.836;6.376;2024-01-15T05:25:34;99982.75;;;1.47;81.65
55456;BME280;63021;52.836;6.376;2024-01-15T05:27:59;99997.03;;;1.43;81.68
55456;BME280;63021;52.836;6.376;2024-01-15T05:30:25;99984.16;;;1.40;82.35
55456;BME280;63021;52.836;6.376;2024-01-15T05:32:50;99977.94;;;1.41;82.31
55456;BME280;63021;52.836;6.376;2024-01-15T05:35:15;99963.34;;;1.36;81.92
55456;BME280;63021;52.836;6.376;2024-01-15T05:37:43;99977.94;;;1.41;82.13
55456;BME280;63021;52.836;6.376;2024-01-15T05:40:10;99985.09;;;1.38;82.32
55456;BME280;63021;52.836;6.376;2024-01-15T05:42:36;99983.19;;;1.41;82.11
55456;BME280;63021;52.836;6.376;2024-01-15T05:45:01;99989.28;;;1.41;82.52
55456;BME280;63021;52.836;6.376;2024-01-15T05:47:29;99992.63;;;1.43;82.11
55456;BME280;63021;52.836;6.376;2024-01-15T05:49:56;100002.16;;;1.44;82.15
55456;BME280;63021;52.836;6.376;2024-01-15T05:52:22;100003.13;;;1.43;82.43
55456;BME280;63021;52.836;6.376;2024-01-15T05:54:47;99991.16;;;1.39;82.39
55456;BME280;63021;52.836;6.376;2024-01-15T05:57:13;99994.41;;;1.43;82.30
55456;BME280;63021;52.836;6.376;2024-01-15T05:59:38;99979.28;;;1.46;82.40
55456;BME280;63021;52.836;6.376;2024-01-15T06:02:04;99990.53;;;1.48;82.55
55456;BME280;63021;52.836;6.376;2024-01-15T06:04:29;99989.78;;;1.46;82.17
55456;BME280;63021;52.836;6.376;2024-01-15T06:06:55;99996.00;;;1.45;82.44
55456;BME280;63021;52.836;6.376;2024-01-15T06:09:20;99984.53;;;1.46;82.12
55456;BME280;63021;52.836;6.376;2024-01-15T06:11:45;99977.81;;;1.42;82.47
55456;BME280;63021;52.836;6.376;2024-01-15T06:14:11;99980.44;;;1.42;82.66
55456;BME280;63021;52.836;6.376;2024-01-15T06:16:36;99984.16;;;1.40;82.10
55456;BME280;63021;52.836;6.376;2024-01-15T06:19:02;99975.88;;;1.33;82.14
55456;BME280;63021;52.836;6.376;2024-01-15T06:21:28;99956.78;;;1.31;82.06
55456;BME280;63021;52.836;6.376;2024-01-15T06:23:53;99956.78;;;1.31;82.12
55456;BME280;63021;52.836;6.376;2024-01-15T06:26:18;99948.63;;;1.23;82.11
55456;BME280;63021;52.836;6.376;2024-01-15T06:28:44;99990.59;;;1.23;82.30
55456;BME280;63021;52.836;6.376;2024-01-15T06:31:10;99963.63;;;1.20;81.92
55456;BME280;63021;52.836;6.376;2024-01-15T06:33:35;99966.47;;;1.17;82.33
55456;BME280;63021;52.836;6.376;2024-01-15T06:36:00;99957.25;;;1.12;82.10
55456;BME280;63021;52.836;6.376;2024-01-15T06:38:26;99967.72;;;1.12;82.03
55456;BME280;63021;52.836;6.376;2024-01-15T06:40:51;99957.56;;;1.07;82.10
55456;BME280;63021;52.836;6.376;2024-01-15T06:43:17;99956.00;;;1.04;82.01
55456;BME280;63021;52.836;6.376;2024-01-15T06:45:46;99962.41;;;1.00;82.33
55456;BME280;63021;52.836;6.376;2024-01-15T06:48:11;99960.31;;;0.93;82.45
55456;BME280;63021;52.836;6.376;2024-01-15T06:50:40;99962.72;;;0.96;82.10
55456;BME280;63021;52.836;6.376;2024-01-15T06:53:05;99963.66;;;0.95;82.67
55456;BME280;63021;52.836;6.376;2024-01-15T06:55:30;99964.63;;;0.94;82.26
55456;BME280;63021;52.836;6.376;2024-01-15T06:57:56;99966.38;;;0.93;82.49
55456;BME280;63021;52.836;6.376;2024-01-15T07:00:21;99974.78;;;0.85;82.78
55456;BME280;63021;52.836;6.376;2024-01-15T07:02:47;99984.13;;;0.90;82.96
55456;BME280;63021;52.836;6.376;2024-01-15T07:05:12;99983.19;;;0.91;82.59
55456;BME280;63021;52.836;6.376;2024-01-15T07:07:37;99987.25;;;0.95;82.58
55456;BME280;63021;52.836;6.376;2024-01-15T07:10:04;99947.00;;;0.83;82.57
55456;BME280;63021;52.836;6.376;2024-01-15T07:12:29;99972.38;;;0.95;82.64
55456;BME280;63021;52.836;6.376;2024-01-15T07:14:56;99964.41;;;0.97;82.59
55456;BME280;63021;52.836;6.376;2024-01-15T07:17:22;99960.84;;;0.98;83.19
55456;BME280;63021;52.836;6.376;2024-01-15T07:19:47;99955.78;;;0.95;82.85
55456;BME280;63021;52.836;6.376;2024-01-15T07:22:12;99943.03;;;0.90;82.68
55456;BME280;63021;52.836;6.376;2024-01-15T07:24:38;99957.16;;;1.00;82.80
55456;BME280;63021;52.836;6.376;2024-01-15T07:27:04;99961.47;;;1.01;82.83
55456;BME280;63021;52.836;6.376;2024-01-15T07:29:30;99953.72;;;1.00;82.50
55456;BME280;63021;52.836;6.376;2024-01-15T07:31:56;99947.63;;;0.99;82.58
55456;BME280;63021;52.836;6.376;2024-01-15T07:34:21;99950.16;;;1.01;82.36
55456;BME280;63021;52.836;6.376;2024-01-15T07:36:47;99943.94;;;1.02;82.38
55456;BME280;63021;52.836;6.376;2024-01-15T07:39:12;99967.03;;;0.97;82.99
55456;BME280;63021;52.836;6.376;2024-01-15T07:41:39;99953.81;;;0.98;82.70
55456;BME280;63021;52.836;6.376;2024-01-15T07:44:05;99950.78;;;0.92;82.72
55456;BME280;63021;52.836;6.376;2024-01-15T07:46:30;99964.63;;;0.94;83.17
55456;BME280;63021;52.836;6.376;2024-01-15T07:48:56;99963.59;;;0.96;82.74
55456;BME280;63021;52.836;6.376;2024-01-15T07:51:24;99961.16;;;0.93;83.10
55456;BME280;63021;52.836;6.376;2024-01-15T07:53:50;99954.03;;;0.95;83.18
55456;BME280;63021;52.836;6.376;2024-01-15T07:56:15;99950.88;;;0.90;83.24
55456;BME280;63021;52.836;6.376;2024-01-15T07:58:41;99956.75;;;0.94;83.10
55456;BME280;63021;52.836;6.376;2024-01-15T08:01:07;99957.91;;;0.90;82.71
55456;BME280;63021;52.836;6.376;2024-01-15T08:03:32;99960.44;;;0.91;83.27
55456;BME280;63021;52.836;6.376;2024-01-15T08:05:58;99954.25;;;0.92;82.81
55456;BME280;63021;52.836;6.376;2024-01-15T08:08:24;99949.94;;;0.91;82.92
55456;BME280;63021;52.836;6.376;2024-01-15T08:10:52;99954.53;;;0.88;82.84
55456;BME280;63021;52.836;6.376;2024-01-15T08:13:17;99950.16;;;0.88;82.88
55456;BME280;63021;52.836;6.376;2024-01-15T08:15:43;99945.03;;;0.86;82.38
55456;BME280;63021;52.836;6.376;2024-01-15T08:18:08;99979.94;;;0.87;82.98
55456;BME280;63021;52.836;6.376;2024-01-15T08:20:34;99982.66;;;0.85;83.00
55456;BME280;63021;52.836;6.376;2024-01-15T08:22:59;99978.13;;;0.88;83.22
55456;BME280;63021;52.836;6.376;2024-01-15T08:25:25;99951.22;;;0.85;83.00
55456;BME280;63021;52.836;6.376;2024-01-15T08:27:51;99980.34;;;0.94;83.15
55456;BME280;63021;52.836;6.376;2024-01-15T08:30:17;99965.34;;;0.96;83.12
55456;BME280;63021;52.836;6.376;2024-01-15T08:32:44;99961.78;;;0.97;83.16
55456;BME280;63021;52.836;6.376;2024-01-15T08:35:10;99980.63;;;1.02;82.75
55456;BME280;63021;52.836;6.376;2024-01-15T08:37:35;99934.84;;;0.95;83.08
55456;BME280;63021;52.836;6.376;2024-01-15T08:40:01;99940.06;;;0.95;83.14
55456;BME280;63021;52.836;6.376;2024-01-15T08:42:26;99950.66;;;1.06;83.10
55456;BME280;63021;52.836;6.376;2024-01-15T08:44:51;99953.03;;;1.09;82.96
55456;BME280;63021;52.836;6.376;2024-01-15T08:47:17;99946.75;;;1.12;83.04
55456;BME280;63021;52.836;6.376;2024-01-15T08:49:42;99961.66;;;1.11;82.60
55456;BME280;63021;52.836;6.376;2024-01-15T08:52:09;99955.97;;;1.17;82.97
55456;BME280;63021;52.836;6.376;2024-01-15T08:54:35;99950.50;;;1.20;82.57
55456;BME280;63021;52.836;6.376;2024-01-15T08:57:00;99950.50;;;1.20;82.71
55456;BME280;63021;52.836;6.376;2024-01-15T08:59:26;99959.84;;;1.25;82.51
55456;BME280;63021;52.836;6.376;2024-01-15T09:01:52;99956.72;;;1.19;82.58
55456;BME280;63021;52.836;6.376;2024-01-15T09:04:18;99959.84;;;1.25;82.46
55456;BME280;63021;52.836;6.376;2024-01-15T09:06:46;99962.22;;;1.28;82.23
55456;BME280;63021;52.836;6.376;2024-01-15T09:09:12;99987.41;;;1.30;82.54
55456;BME280;63021;52.836;6.376;2024-01-15T09:11:39;99960.97;;;1.33;82.88
55456;BME280;63021;52.836;6.376;2024-01-15T09:14:04;99962.41;;;1.37;82.38
55456;BME280;63021;52.836;6.376;2024-01-15T09:16:30;99952.16;;;1.34;82.87
55456;BME280;63021;52.836;6.376;2024-01-15T09:18:55;99965.91;;;1.38;82.74
55456;BME280;63021;52.836;6.376;2024-01-15T09:21:22;99984.03;;;1.41;82.81
55456;BME280;63021;52.836;6.376;2024-01-15T09:23:48;99957.91;;;1.40;82.54
55456;BME280;63021;52.836;6.376;2024-01-15T09:26:14;99955.91;;;1.43;82.38
55456;BME280;63021;52.836;6.376;2024-01-15T09:28:39;99964.72;;;1.42;82.22
55456;BME280;63021;52.836;6.376;2024-01-15T09:31:04;99970.81;;;1.43;82.70
55456;BME280;63021;52.836;6.376;2024-01-15T09:33:30;99966.50;;;1.42;81.96
55456;BME280;63021;52.836;6.376;2024-01-15T09:35:55;99971.88;;;1.40;82.71
55456;BME280;63021;52.836;6.376;2024-01-15T09:38:20;99961.38;;;1.40;82.56
55456;BME280;63021;52.836;6.376;2024-01-15T09:40:46;99951.63;;;1.29;82.27
55456;BME280;63021;52.836;6.376;2024-01-15T09:43:12;99959.69;;;1.39;82.59
55456;BME280;63021;52.836;6.376;2024-01-15T09:45:39;99951.72;;;1.41;82.51
55456;BME280;63021;52.836;6.376;2024-01-15T09:48:05;99961.16;;;1.43;82.78
55456;BME280;63021;52.836;6.376;2024-01-15T09:50:31;99958.31;;;1.46;82.50
55456;BME280;63021;52.836;6.376;2024-01-15T09:52:57;99962.59;;;1.47;82.69
55456;BME280;63021;52.836;6.376;2024-01-15T09:55:22;99960.50;;;1.52;82.00
55456;BME280;63021;52.836;6.376;2024-01-15T09:57:49;99965.31;;;1.59;82.34
55456;BME280;63021;52.836;6.376;2024-01-15T10:00:18;99957.72;;;1.67;82.29
55456;BME280;63021;52.836;6.376;2024-01-15T10:02:44;99968.47;;;1.75;82.73
55456;BME280;63021;52.836;6.376;2024-01-15T10:05:09;99952.06;;;1.84;82.85
55456;BME280;63021;52.836;6.376;2024-01-15T10:07:36;99948.16;;;1.90;82.31
55456;BME280;63021;52.836;6.376;2024-01-15T10:10:02;99950.66;;;1.92;82.12
55456;BME280;63021;52.836;6.376;2024-01-15T10:12:32;99945.53;;;1.90;81.81
55456;BME280;63021;52.836;6.376;2024-01-15T10:14:58;99952.19;;;1.83;82.27
55456;BME280;63021;52.836;6.376;2024-01-15T10:17:24;99939.06;;;1.83;82.66
55456;BME280;63021;52.836;6.376;2024-01-15T10:19:50;99957.78;;;1.89;81.68
55456;BME280;63021;52.836;6.376;2024-01-15T10:22:16;99951.13;;;1.85;82.02
55456;BME280;63021;52.836;6.376;2024-01-15T10:24:43;99951.94;;;1.86;82.05
55456;BME280;63021;52.836;6.376;2024-01-15T10:27:09;99955.97;;;1.79;82.26
55456;BME280;63021;52.836;6.376;2024-01-15T10:29:35;99935.53;;;1.71;82.02
55456;BME280;63021;52.836;6.376;2024-01-15T10:32:01;99967.31;;;1.79;82.18
55456;BME280;63021;52.836;6.376;2024-01-15T10:34:26;99937.50;;;1.80;81.99
55456;BME280;63021;52.836;6.376;2024-01-15T10:36:52;99948.59;;;1.84;82.26
55456;BME280;63021;52.836;6.376;2024-01-15T10:39:26;99967.47;;;1.89;82.24
55456;BME280;63021;52.836;6.376;2024-01-15T10:41:52;99959.13;;;1.95;81.98
55456;BME280;63021;52.836;6.376;2024-01-15T10:44:17;99959.41;;;2.03;81.92
55456;BME280;63021;52.836;6.376;2024-01-15T10:46:45;99965.50;;;2.04;82.05
55456;BME280;63021;52.836;6.376;2024-01-15T10:49:14;99958.25;;;2.07;81.97
55456;BME280;63021;52.836;6.376;2024-01-15T10:51:39;99946.56;;;2.12;81.90
55456;BME280;63021;52.836;6.376;2024-01-15T10:54:08;99936.75;;;2.14;81.55
55456;BME280;63021;52.836;6.376;2024-01-15T10:56:36;99945.75;;;2.22;82.04
55456;BME280;63021;52.836;6.376;2024-01-15T10:59:03;99938.09;;;2.19;81.54
55456;BME280;63021;52.836;6.376;2024-01-15T11:01:30;99962.66;;;2.18;81.46
55456;BME280;63021;52.836;6.376;2024-01-15T11:03:56;99961.16;;;2.27;81.96
55456;BME280;63021;52.836;6.376;2024-01-15T11:06:24;99954.00;;;2.29;81.60
55456;BME280;63021;52.836;6.376;2024-01-15T11:08:52;99952.19;;;2.30;81.13
55456;BME280;63021;52.836;6.376;2024-01-15T11:11:18;99980.38;;;2.28;81.78
55456;BME280;63021;52.836;6.376;2024-01-15T11:13:46;99977.75;;;2.28;81.55
55456;BME280;63021;52.836;6.376;2024-01-15T11:16:14;99953.06;;;2.30;81.71
55456;BME280;63021;52.836;6.376;2024-01-15T11:21:25;99952.19;;;2.30;81.03
55456;BME280;63021;52.836;6.376;2024-01-15T11:24:01;99943.84;;;2.24;81.29
55456;BME280;63021;52.836;6.376;2024-01-15T11:26:37;99954.00;;;2.29;81.42
55456;BME280;63021;52.836;6.376;2024-01-15T11:29:07;99973.56;;;2.25;81.26
55456;BME280;63021;52.836;6.376;2024-01-15T11:34:10;99925.72;;;2.21;80.82
55456;BME280;63021;52.836;6.376;2024-01-15T11:41:58;99949.81;;;2.27;81.22
55456;BME280;63021;52.836;6.376;2024-01-15T11:44:25;99953.19;;;2.29;81.04
55456;BME280;63021;52.836;6.376;2024-01-15T11:47:01;99954.13;;;2.28;81.25
55456;BME280;63021;52.836;6.376;2024-01-15T11:52:33;99960.56;;;2.23;81.17
55456;BME280;63021;52.836;6.376;2024-01-15T11:57:45;99965.09;;;2.21;81.55
55456;BME280;63021;52.836;6.376;2024-01-15T12:00:12;99964.34;;;2.19;81.00
55456;BME280;63021;52.836;6.376;2024-01-15T12:02:39;99974.75;;;2.21;81.73
55456;BME280;63021;52.836;6.376;2024-01-15T12:05:07;99969.72;;;2.18;81.72
55456;BME280;63021;52.836;6.376;2024-01-15T12:07:32;99983.31;;;2.12;81.54
55456;BME280;63021;52.836;6.376;2024-01-15T12:09:58;100041.72;;;2.02;81.05
55456;BME280;63021;52.836;6.376;2024-01-15T12:15:21;100035.31;;;1.82;81.09
55456;BME280;63021;52.836;6.376;2024-01-15T12:17:47;100039.75;;;1.69;80.93
55456;BME280;63021;52.836;6.376;2024-01-15T12:20:13;100042.72;;;1.64;80.96
55456;BME280;63021;52.836;6.376;2024-01-15T12:22:39;100039.69;;;1.58;80.86
55456;BME280;63021;52.836;6.376;2024-01-15T12:25:05;100035.81;;;1.50;81.05
55456;BME280;63021;52.836;6.376;2024-01-15T12:27:31;100034.47;;;1.45;81.17
55456;BME280;63021;52.836;6.376;2024-01-15T12:29:58;100052.84;;;1.45;80.90
55456;BME280;63021;52.836;6.376;2024-01-15T12:32:24;100039.00;;;1.43;80.77
55456;BME280;63021;52.836;6.376;2024-01-15T12:34:50;100036.50;;;1.41;80.98
55456;BME280;63021;52.836;6.376;2024-01-15T12:37:18;100027.66;;;1.42;81.07
55456;BME280;63021;52.836;6.376;2024-01-15T12:39:44;100041.09;;;1.37;81.31
55456;BME280;63021;52.836;6.376;2024-01-15T12:42:10;100031.03;;;1.44;81.07
55456;BME280;63021;52.836;6.376;2024-01-15T12:44:36;100029.13;;;1.46;81.28
55456;BME280;63021;52.836;6.376;2024-01-15T12:47:04;100029.00;;;1.48;81.35
55456;BME280;63021;52.836;6.376;2024-01-15T12:49:30;100019.47;;;1.47;81.22
55456;BME280;63021;52.836;6.376;2024-01-15T12:51:59;100036.47;;;1.54;81.60
55456;BME280;63021;52.836;6.376;2024-01-15T12:54:25;100030.13;;;1.56;81.25
55456;BME280;63021;52.836;6.376;2024-01-15T12:56:51;100035.38;;;1.56;81.75
55456;BME280;63021;52.836;6.376;2024-01-15T12:59:17;100047.06;;;1.52;81.46
55456;BME280;63021;52.836;6.376;2024-01-15T13:01:44;100046.28;;;1.63;81.35
55456;BME280;63021;52.836;6.376;2024-01-15T13:04:09;100045.25;;;1.66;81.50
55456;BME280;63021;52.836;6.376;2024-01-15T13:06:35;100056.34;;;1.69;81.65
55456;BME280;63021;52.836;6.376;2024-01-15T13:09:02;100065.38;;;1.78;81.57
55456;BME280;63021;52.836;6.376;2024-01-15T13:11:29;100071.50;;;1.90;81.96
55456;BME280;63021;52.836;6.376;2024-01-15T13:13:54;100075.38;;;1.97;81.41
55456;BME280;63021;52.836;6.376;2024-01-15T13:16:20;100065.25;;;2.04;81.88
55456;BME280;63021;52.836;6.376;2024-01-15T13:18:46;100057.88;;;2.09;81.64